Time,TemperatureF,DewpointF,PressureIn,WindDirection,WindDirectionDegrees,WindSpeedMPH,WindSpeedGustMPH,Humidity,HourlyPrecipIn,Conditions,Clouds,dailyrainin,SolarRadiationWatts/m^2,SoftwareType,DateUTC
2013-04-22 00:00:00,41.2,32.5,30.16,ESE,103,0.0,7.0,71,0.00,,,0.00,0,Wunderground v.1.15,2013-04-22 04:00:00,
2013-04-22 00:30:00,40.6,32.3,30.15,ESE,103,0.0,7.0,72,0.00,,,0.00,0,Wunderground v.1.15,2013-04-22 04:30:00,
2013-04-22 01:00:00,39.5,32.6,30.15,ESE,102,1.0,7.0,76,0.00,,,0.00,0,Wunderground v.1.15,2013-04-22 05:00:00,
2013-04-22 01:30:00,38.9,32.6,30.15,ESE,102,0.0,7.0,78,0.00,,,0.00,0,Wunderground v.1.15,2013-04-22 05:30:00,
2013-04-22 02:01:00,37.3,31.7,30.14,ESE,102,1.0,7.0,80,0.00,,,0.00,0,Wunderground v.1.15,2013-04-22 06:01:00,
2013-04-22 02:31:00,37.3,32.6,30.14,ESE,102,0.0,7.0,83,0.00,,,0.00,0,Wunderground v.1.15,2013-04-22 06:31:00,
2013-04-22 03:01:00,36.5,31.8,30.14,ESE,102,0.0,7.0,83,0.00,,,0.00,0,Wunderground v.1.15,2013-04-22 07:01:00,
2013-04-22 03:31:00,35.8,31.4,30.15,ESE,102,0.0,7.0,84,0.00,,,0.00,0,Wunderground v.1.15,2013-04-22 07:31:00,
2013-04-22 04:01:00,35.9,32.1,30.15,ESE,102,0.0,7.0,86,0.00,,,0.00,0,Wunderground v.1.15,2013-04-22 08:01:00,
2013-04-22 04:31:00,36.2,33.3,30.14,East,101,0.0,7.0,89,0.00,,,0.00,0,Wunderground v.1.15,2013-04-22 08:31:00,
2013-04-22 05:00:00,36.5,33.8,30.14,East,101,0.0,7.0,90,0.00,,,0.00,0,Wunderground v.1.15,2013-04-22 09:00:00,
2013-04-22 05:30:00,36.9,34.8,30.14,East,101,0.0,7.0,92,0.00,,,0.00,0,Wunderground v.1.15,2013-04-22 09:30:00,
2013-04-22 06:00:00,37.2,35.1,30.14,East,101,0.0,7.0,92,0.00,,,0.00,0,Wunderground v.1.15,2013-04-22 10:00:00,
2013-04-22 06:30:00,34.1,31.5,30.15,East,101,0.0,7.0,90,0.00,,,0.00,0,Wunderground v.1.15,2013-04-22 10:30:00,
2013-04-22 07:00:00,32.7,31.2,30.15,East,101,3.0,7.0,94,0.00,,,0.00,0,Wunderground v.1.15,2013-04-22 11:00:00,
2013-04-22 07:30:00,34.5,33.7,30.16,East,101,0.0,7.0,97,0.00,,,0.00,0,Wunderground v.1.15,2013-04-22 11:30:00,
2013-04-22 08:00:00,37.8,37.5,30.16,North,5,4.0,7.0,99,0.00,,,0.00,0,Wunderground v.1.15,2013-04-22 12:00:00,
2013-04-22 08:30:00,42.2,37.4,30.16,North,5,6.0,7.0,83,0.00,,,0.00,0,Wunderground v.1.15,2013-04-22 12:30:00,
2013-04-22 09:00:00,45.6,36.4,30.17,North,1,2.0,7.0,70,0.00,,,0.00,0,Wunderground v.1.15,2013-04-22 13:00:00,
2013-04-22 09:30:00,47.9,35.9,30.16,NE,45,4.0,7.0,63,0.00,,,0.00,0,Wunderground v.1.15,2013-04-22 13:30:00,
2013-04-22 10:00:00,50.1,33.1,30.16,SE,125,2.0,7.0,52,0.00,,,0.00,0,Wunderground v.1.15,2013-04-22 14:00:00,
2013-04-22 10:30:00,50.8,34.7,30.16,NNE,14,3.0,7.0,54,0.00,,,0.00,0,Wunderground v.1.15,2013-04-22 14:30:00,
2013-04-22 11:00:00,50.1,33.6,30.15,East,85,4.0,7.0,53,0.00,,,0.00,0,Wunderground v.1.15,2013-04-22 15:00:00,
2013-04-22 11:30:00,49.4,34.3,30.14,ENE,65,3.0,7.0,56,0.00,,,0.00,0,Wunderground v.1.15,2013-04-22 15:30:00,
2013-04-22 12:00:00,51.6,34.5,30.12,East,80,6.0,7.0,52,0.00,,,0.00,0,Wunderground v.1.15,2013-04-22 16:00:00,
2013-04-22 12:30:00,53.9,33.6,30.11,East,86,3.0,7.0,46,0.00,,,0.00,0,Wunderground v.1.15,2013-04-22 16:30:00,
2013-04-22 13:00:00,54.8,36.0,30.10,NNE,32,12.0,12.0,49,0.00,,,0.00,0,Wunderground v.1.15,2013-04-22 17:00:00,
2013-04-22 13:30:00,54.3,33.9,30.08,ESE,106,1.0,7.0,46,0.00,,,0.00,0,Wunderground v.1.15,2013-04-22 17:30:00,
2013-04-22 14:00:00,55.1,34.7,30.07,NE,51,5.0,7.0,46,0.00,,,0.00,0,Wunderground v.1.15,2013-04-22 18:00:00,
2013-04-22 14:30:00,58.0,33.8,30.05,SE,124,6.0,7.0,40,0.00,,,0.00,0,Wunderground v.1.15,2013-04-22 18:30:00,
2013-04-22 15:00:00,57.0,34.7,30.04,NE,38,8.0,8.0,43,0.00,,,0.00,0,Wunderground v.1.15,2013-04-22 19:00:00,
2013-04-22 15:30:00,57.4,36.2,30.03,ENE,63,2.0,7.0,45,0.00,,,0.00,0,Wunderground v.1.15,2013-04-22 19:30:00,
2013-04-22 16:00:00,59.4,38.0,30.02,ENE,69,5.0,7.0,45,0.00,,,0.00,0,Wunderground v.1.15,2013-04-22 20:00:00,
2013-04-22 16:30:00,57.9,36.1,30.01,East,92,1.0,7.0,44,0.00,,,0.00,0,Wunderground v.1.15,2013-04-22 20:30:00,
2013-04-22 17:00:00,58.1,36.9,30.00,ESE,108,7.0,7.0,45,0.00,,,0.00,0,Wunderground v.1.15,2013-04-22 21:00:00,
2013-04-22 17:30:00,57.8,36.6,29.99,SSE,148,3.0,7.0,45,0.00,,,0.00,0,Wunderground v.1.15,2013-04-22 21:30:00,
2013-04-22 18:00:00,57.3,37.2,29.99,SE,138,5.0,7.0,47,0.00,,,0.00,0,Wunderground v.1.15,2013-04-22 22:00:00,
2013-04-22 18:30:00,56.1,38.2,29.98,NNE,14,4.0,7.0,51,0.00,,,0.00,0,Wunderground v.1.15,2013-04-22 22:30:00,
2013-04-22 19:00:00,54.8,37.5,29.99,North,6,3.0,7.0,52,0.00,,,0.00,0,Wunderground v.1.15,2013-04-22 23:00:00,
2013-04-22 19:30:00,53.6,37.8,29.98,SE,133,1.0,7.0,55,0.00,,,0.00,0,Wunderground v.1.15,2013-04-22 23:30:00,
2013-04-22 20:00:00,52.2,37.4,29.99,SE,143,3.0,7.0,57,0.00,,,0.00,0,Wunderground v.1.15,2013-04-23 00:00:00,
2013-04-22 20:30:00,50.7,37.7,30.00,SE,142,3.0,7.0,61,0.00,,,0.00,0,Wunderground v.1.15,2013-04-23 00:30:00,
2013-04-22 21:00:00,50.1,38.4,30.01,SE,143,1.0,7.0,64,0.00,,,0.00,0,Wunderground v.1.15,2013-04-23 01:00:00,
2013-04-22 21:30:00,49.1,37.8,30.02,East,83,5.0,7.0,65,0.00,,,0.00,0,Wunderground v.1.15,2013-04-23 01:30:00,
2013-04-22 22:00:00,47.7,37.7,30.02,East,80,1.0,7.0,68,0.00,,,0.00,0,Wunderground v.1.15,2013-04-23 02:00:00,
2013-04-22 22:30:00,45.8,36.9,30.03,ESE,117,3.0,7.0,71,0.00,,,0.00,0,Wunderground v.1.15,2013-04-23 02:30:00,
2013-04-22 23:00:00,44.5,36.4,30.03,ESE,113,0.0,7.0,73,0.00,,,0.00,0,Wunderground v.1.15,2013-04-23 03:00:00,
2013-04-22 23:30:00,43.6,36.5,30.02,East,85,0.0,7.0,76,0.00,,,0.00,0,Wunderground v.1.15,2013-04-23 03:30:00,